Time;durP1;ratioP1;P1;durP2;ratioP2;P2;SDS_P1;SDS_P2;PMS_P1;PMS_P2;Temp;Humidity;BMP_temperature;BMP_pressure;BME280_temperature;BME280_humidity;BME280_pressure;Samples;Min_cycle;Max_cycle;Signal;HPM_P1;HPM_P2
2022/05/22 00:01:41;;;;;;;9.75;5.78;;;11.10;99.90;;;;;;5028743;28;20144;-76
2022/05/22 00:04:08;;;;;;;12.55;5.80;;;11.10;99.90;;;;;;5028733;28;20501;-78
2022/05/22 00:06:35;;;;;;;11.10;6.07;;;11.10;99.90;;;;;;5009905;28;20041;-78
2022/05/22 00:09:00;;;;;;;10.43;6.15;;;10.90;99.90;;;;;;5010793;28;20688;-77
2022/05/22 00:11:26;;;;;;;8.40;5.05;;;11.00;99.90;;;;;;5028510;28;20032;-77
2022/05/22 00:13:52;;;;;;;8.27;5.35;;;11.00;99.90;;;;;;5027460;28;20060;-77
2022/05/22 00:16:36;;;;;;;7.90;5.32;;;11.00;99.90;;;;;;5027330;28;20033;-76
2022/05/22 00:19:07;;;;;;;10.00;5.60;;;11.00;99.90;;;;;;5028195;28;20033;-77
2022/05/22 00:21:33;;;;;;;10.02;6.22;;;11.10;99.90;;;;;;5027951;28;20043;-77
2022/05/22 00:23:59;;;;;;;9.10;5.60;;;11.10;99.90;;;;;;5028396;28;20116;-76
2022/05/22 00:26:24;;;;;;;8.52;5.32;;;11.20;99.90;;;;;;5028000;28;20133;-76
2022/05/22 00:28:53;;;;;;;9.00;5.65;;;11.20;99.90;;;;;;5027336;28;20726;-77
2022/05/22 00:31:19;;;;;;;9.48;5.35;;;11.00;99.90;;;;;;5029327;28;20025;-77
2022/05/22 00:33:45;;;;;;;11.05;5.85;;;10.80;99.90;;;;;;5026782;28;20115;-77
2022/05/22 00:36:10;;;;;;;9.02;5.75;;;10.60;99.90;;;;;;5028821;28;20057;-77
2022/05/22 00:38:37;;;;;;;8.27;5.35;;;10.60;99.90;;;;;;5031709;28;20041;-77
2022/05/22 00:41:03;;;;;;;12.25;6.32;;;10.50;99.90;;;;;;5033372;28;20084;-77
2022/05/22 00:43:32;;;;;;;8.57;5.47;;;10.50;99.90;;;;;;5031411;28;20045;-77
2022/05/22 00:45:59;;;;;;;9.75;5.97;;;10.40;99.90;;;;;;5033049;28;20025;-77
2022/05/22 00:48:26;;;;;;;14.18;5.43;;;10.40;99.90;;;;;;5031528;28;20112;-76
2022/05/22 00:50:55;;;;;;;9.82;5.72;;;10.50;99.90;;;;;;5031782;28;20061;-76
2022/05/22 00:53:22;;;;;;;9.20;5.50;;;10.50;99.90;;;;;;5014426;28;20124;-76
2022/05/22 00:55:48;;;;;;;12.50;6.25;;;10.30;99.90;;;;;;5031412;28;20025;-77
2022/05/22 00:58:18;;;;;;;10.38;5.50;;;10.20;99.90;;;;;;5031141;28;20029;-76
2022/05/22 01:00:45;;;;;;;7.83;5.30;;;10.10;99.90;;;;;;5013597;28;20033;-75
2022/05/22 01:03:31;;;;;;;10.50;6.10;;;10.10;99.90;;;;;;5031175;28;20867;-77
2022/05/22 01:06:07;;;;;;;8.70;6.03;;;10.20;99.90;;;;;;5032465;28;20029;-77
2022/05/22 01:08:34;;;;;;;10.25;6.00;;;10.20;99.90;;;;;;5018149;28;20071;-75
2022/05/22 01:11:11;;;;;;;10.35;6.18;;;10.20;99.90;;;;;;5032352;28;20719;-77
2022/05/22 01:13:52;;;;;;;11.90;6.00;;;10.10;99.90;;;;;;5013110;28;20148;-77
2022/05/22 01:16:18;;;;;;;9.63;6.50;;;10.20;99.90;;;;;;5029412;28;20110;-77
2022/05/22 01:18:50;;;;;;;9.98;5.90;;;10.20;99.90;;;;;;5013060;28;20057;-76
2022/05/22 01:21:38;;;;;;;12.50;5.90;;;10.20;99.90;;;;;;5031713;28;20422;-77
2022/05/22 01:24:07;;;;;;;9.68;5.35;;;10.10;99.90;;;;;;5028780;28;20137;-76
2022/05/22 01:26:33;;;;;;;18.65;6.15;;;10.00;99.90;;;;;;5030568;28;20029;-76
2022/05/22 01:28:59;;;;;;;9.60;5.50;;;10.00;99.90;;;;;;5030580;28;20025;-77
2022/05/22 01:31:24;;;;;;;10.13;5.57;;;10.00;99.90;;;;;;5031990;28;20044;-77
2022/05/22 01:33:50;;;;;;;9.40;6.07;;;10.00;99.90;;;;;;5030550;28;20029;-76
2022/05/22 01:36:17;;;;;;;12.73;6.22;;;9.90;99.90;;;;;;5031045;28;20112;-77
2022/05/22 01:38:43;;;;;;;13.30;5.43;;;9.90;99.90;;;;;;5029812;28;20073;-76
2022/05/22 01:41:09;;;;;;;10.13;6.05;;;9.90;99.90;;;;;;5031736;28;20050;-77
2022/05/22 01:43:35;;;;;;;9.55;5.90;;;9.70;99.90;;;;;;5030606;28;20052;-76
2022/05/22 01:46:02;;;;;;;8.85;5.72;;;9.70;99.90;;;;;;5032053;28;20108;-77
2022/05/22 01:48:28;;;;;;;12.23;5.82;;;9.60;99.90;;;;;;5011639;28;20034;-76
2022/05/22 01:50:54;;;;;;;10.75;5.28;;;9.70;99.90;;;;;;5031514;28;20048;-77
2022/05/22 01:53:21;;;;;;;9.85;5.95;;;9.60;99.90;;;;;;5030955;28;20137;-76
2022/05/22 01:55:48;;;;;;;9.13;5.82;;;9.50;99.90;;;;;;5030882;28;20029;-77
2022/05/22 01:58:14;;;;;;;10.35;6.28;;;9.50;99.90;;;;;;5025183;28;20039;-76
2022/05/22 02:00:40;;;;;;;13.98;6.03;;;9.50;99.90;;;;;;5027490;28;20108;-76
2022/05/22 02:03:07;;;;;;;13.50;5.95;;;9.60;99.90;;;;;;5030025;28;20550;-76
2022/05/22 02:05:34;;;;;;;10.23;6.32;;;9.60;99.90;;;;;;5030637;28;20072;-76
2022/05/22 02:10:45;;;;;;;10.95;6.20;;;9.50;99.90;;;;;;5029220;28;20103;-77
2022/05/22 02:13:10;;;;;;;9.90;6.55;;;9.60;99.90;;;;;;5013545;28;20390;-77
2022/05/22 02:15:36;;;;;;;9.55;6.13;;;9.70;99.90;;;;;;5029964;28;20033;-77
2022/05/22 02:18:03;;;;;;;8.93;5.85;;;9.80;99.90;;;;;;5030446;28;20087;-76
2022/05/22 02:20:29;;;;;;;12.13;6.05;;;9.70;99.90;;;;;;5030294;28;20029;-75
2022/05/22 02:22:57;;;;;;;11.57;6.05;;;9.50;99.90;;;;;;5030665;28;20048;-76
2022/05/22 02:25:26;;;;;;;8.85;5.63;;;9.40;99.90;;;;;;5030407;28;20037;-77
2022/05/22 02:27:52;;;;;;;11.20;6.20;;;9.40;99.90;;;;;;5029529;28;20505;-76
2022/05/22 02:30:23;;;;;;;12.93;5.90;;;9.40;99.90;;;;;;5029783;28;20028;-77
2022/05/22 02:32:48;;;;;;;10.07;5.55;;;9.30;99.90;;;;;;5030550;28;20037;-77
2022/05/22 02:35:15;;;;;;;9.63;5.70;;;9.30;99.90;;;;;;5011793;28;20036;-76
2022/05/22 02:37:49;;;;;;;8.52;5.05;;;9.20;99.90;;;;;;5029219;28;20735;-75
2022/05/22 02:40:17;;;;;;;14.07;5.45;;;9.20;99.90;;;;;;5029092;28;20049;-77
2022/05/22 02:42:46;;;;;;;7.88;5.47;;;9.20;99.90;;;;;;5028301;28;20045;-77
2022/05/22 02:45:13;;;;;;;11.10;5.78;;;9.10;99.90;;;;;;5029708;28;20554;-75
2022/05/22 02:47:39;;;;;;;9.68;5.15;;;9.10;99.90;;;;;;5028393;28;20037;-77
2022/05/22 02:50:07;;;;;;;10.88;5.68;;;9.10;99.90;;;;;;5030729;28;20095;-77
2022/05/22 02:52:33;;;;;;;9.32;5.53;;;9.10;99.90;;;;;;5028597;28;20035;-74
2022/05/22 02:54:59;;;;;;;10.70;5.53;;;9.10;99.90;;;;;;5029630;28;20033;-76
2022/05/22 02:57:25;;;;;;;11.18;5.90;;;9.10;99.90;;;;;;5028997;28;20030;-76
2022/05/22 02:59:52;;;;;;;9.10;5.60;;;9.10;99.90;;;;;;5029013;28;20079;-76
2022/05/22 03:02:18;;;;;;;10.95;5.65;;;9.00;99.90;;;;;;5028645;28;20099;-77
2022/05/22 03:04:44;;;;;;;8.77;5.63;;;8.90;99.90;;;;;;5029290;28;20026;-75
2022/05/22 03:07:12;;;;;;;10.88;6.00;;;8.90;99.90;;;;;;5029360;28;20037;-77
2022/05/22 03:09:39;;;;;;;10.07;5.10;;;8.90;99.90;;;;;;5028780;28;20025;-76
2022/05/22 03:12:11;;;;;;;10.65;5.57;;;8.90;99.90;;;;;;5030327;28;20036;-77
2022/05/22 03:14:37;;;;;;;9.65;5.50;;;9.00;99.90;;;;;;5028586;28;20041;-77
2022/05/22 03:17:03;;;;;;;8.85;5.40;;;9.10;99.90;;;;;;5028465;28;20041;-77
2022/05/22 03:19:28;;;;;;;10.93;5.43;;;9.10;99.90;;;;;;5030136;28;20029;-77
2022/05/22 03:21:54;;;;;;;7.97;5.30;;;9.10;99.90;;;;;;5026974;28;20649;-77
2022/05/22 03:24:20;;;;;;;9.73;5.35;;;9.00;99.90;;;;;;5028979;28;20530;-77
2022/05/22 03:26:46;;;;;;;9.25;5.55;;;9.10;99.90;;;;;;5015872;28;20040;-76
2022/05/22 03:29:12;;;;;;;9.38;5.60;;;9.00;99.90;;;;;;5020941;28;20116;-77
2022/05/22 03:31:37;;;;;;;9.82;5.45;;;8.90;99.90;;;;;;5029304;28;20021;-74
2022/05/22 03:34:04;;;;;;;12.07;5.97;;;8.90;99.90;;;;;;5028232;28;20029;-76
2022/05/22 03:36:30;;;;;;;9.23;5.63;;;8.90;99.90;;;;;;5027784;28;20033;-76
2022/05/22 03:38:55;;;;;;;8.55;5.35;;;8.90;99.90;;;;;;5028122;28;20083;-76
2022/05/22 03:41:21;;;;;;;8.90;5.65;;;8.80;99.90;;;;;;5029855;28;20429;-77
2022/05/22 03:43:47;;;;;;;10.63;5.55;;;8.80;99.90;;;;;;5026097;28;20084;-76
2022/05/22 03:46:13;;;;;;;9.48;5.72;;;8.80;99.90;;;;;;5028926;28;20123;-77
2022/05/22 03:48:40;;;;;;;9.32;6.07;;;8.80;99.90;;;;;;5026951;28;20029;-76
2022/05/22 03:51:06;;;;;;;11.85;6.20;;;8.80;99.90;;;;;;5029736;28;20112;-76
2022/05/22 03:53:32;;;;;;;9.40;5.88;;;8.80;99.90;;;;;;5028781;28;20446;-76
2022/05/22 03:55:57;;;;;;;8.98;6.30;;;8.90;99.90;;;;;;5027684;28;20664;-76
2022/05/22 03:58:23;;;;;;;10.73;6.03;;;9.00;99.90;;;;;;5027994;28;20033;-76
2022/05/22 04:00:49;;;;;;;10.52;6.15;;;9.00;99.90;;;;;;5028857;28;20068;-76
2022/05/22 04:03:14;;;;;;;12.00;5.68;;;9.10;99.90;;;;;;5027775;28;20571;-76
2022/05/22 04:05:40;;;;;;;10.43;5.78;;;9.00;99.90;;;;;;5028062;28;20048;-76
2022/05/22 04:08:06;;;;;;;9.77;5.60;;;9.00;99.90;;;;;;5027461;28;20064;-76
2022/05/22 04:10:32;;;;;;;11.57;5.35;;;9.10;99.90;;;;;;5028663;28;20087;-76
2022/05/22 04:12:57;;;;;;;9.27;5.38;;;9.20;99.90;;;;;;5027633;28;20029;-76
2022/05/22 04:15:23;;;;;;;8.50;5.53;;;9.20;99.90;;;;;;5023614;28;20038;-76
2022/05/22 04:17:49;;;;;;;8.40;5.72;;;9.20;99.90;;;;;;5024961;28;20467;-76
2022/05/22 04:20:17;;;;;;;10.00;5.15;;;9.30;99.90;;;;;;5026568;28;20037;-76
2022/05/22 04:25:27;;;;;;;10.07;5.55;;;9.60;99.90;;;;;;5027298;28;20036;-76
2022/05/22 04:27:53;;;;;;;8.70;5.25;;;9.70;99.90;;;;;;5028508;28;20033;-76
2022/05/22 04:30:20;;;;;;;8.25;5.25;;;9.90;99.90;;;;;;5025421;28;20032;-76
2022/05/22 04:32:47;;;;;;;9.82;4.88;;;10.10;99.90;;;;;;5027905;28;20095;-77
2022/05/22 04:35:13;;;;;;;9.65;4.78;;;10.30;99.90;;;;;;5027561;28;20061;-76
2022/05/22 04:37:39;;;;;;;9.77;4.95;;;10.50;99.90;;;;;;5028588;28;20143;-75
2022/05/22 04:40:08;;;;;;;7.93;4.90;;;10.40;99.90;;;;;;5027494;28;20128;-76
2022/05/22 04:42:35;;;;;;;9.02;5.28;;;10.50;99.90;;;;;;5026186;28;20037;-76
2022/05/22 04:45:02;;;;;;;10.07;5.10;;;10.70;99.90;;;;;;5028225;28;20047;-76
2022/05/22 04:47:28;;;;;;;7.95;5.07;;;10.70;99.90;;;;;;5010216;28;20037;-77
2022/05/22 04:49:54;;;;;;;8.65;5.00;;;10.80;99.90;;;;;;5028100;28;20033;-76
2022/05/22 04:52:21;;;;;;;10.10;5.13;;;10.90;99.90;;;;;;5027276;28;20053;-77
2022/05/22 04:54:47;;;;;;;8.95;4.75;;;10.90;99.90;;;;;;5027931;28;20489;-76
2022/05/22 04:57:13;;;;;;;10.93;4.72;;;11.10;99.90;;;;;;5028202;28;20029;-76
2022/05/22 04:59:39;;;;;;;10.35;5.10;;;11.20;99.90;;;;;;5028842;28;20037;-77
2022/05/22 05:02:05;;;;;;;9.02;4.70;;;11.10;99.90;;;;;;5027094;28;20045;-76
2022/05/22 05:04:31;;;;;;;7.70;5.40;;;11.00;99.90;;;;;;5028458;28;20084;-77
2022/05/22 05:06:57;;;;;;;7.63;4.80;;;11.00;99.90;;;;;;5026922;28;20463;-77
2022/05/22 05:09:23;;;;;;;9.40;5.10;;;11.00;99.90;;;;;;5027186;28;20041;-76
2022/05/22 05:11:49;;;;;;;9.45;5.60;;;11.10;99.90;;;;;;5026243;28;20032;-77
2022/05/22 05:14:14;;;;;;;9.63;5.22;;;11.00;99.90;;;;;;5026391;28;20057;-77
2022/05/22 05:16:40;;;;;;;9.50;5.93;;;11.20;99.90;;;;;;5027734;28;20029;-77
2022/05/22 05:19:05;;;;;;;9.90;5.55;;;11.40;99.90;;;;;;5027691;28;20045;-77
2022/05/22 05:21:31;;;;;;;7.72;5.20;;;11.50;99.90;;;;;;5029155;28;20385;-76
2022/05/22 05:23:57;;;;;;;14.23;6.10;;;11.70;99.90;;;;;;5024363;28;20072;-77
2022/05/22 05:26:23;;;;;;;8.75;5.43;;;11.80;99.90;;;;;;5013414;28;20037;-77
2022/05/22 05:28:49;;;;;;;8.45;5.22;;;11.90;99.90;;;;;;5027761;28;20057;-75
2022/05/22 05:31:15;;;;;;;9.40;5.55;;;12.00;99.90;;;;;;5030636;28;20041;-76
2022/05/22 05:33:41;;;;;;;7.72;5.25;;;12.10;99.90;;;;;;5033870;28;20037;-75
2022/05/22 05:36:11;;;;;;;11.30;5.50;;;12.20;99.90;;;;;;5029349;28;20371;-76
2022/05/22 05:38:38;;;;;;;8.38;5.57;;;12.40;99.90;;;;;;5029705;28;20037;-75
2022/05/22 05:41:04;;;;;;;7.60;5.35;;;12.60;99.90;;;;;;5029368;28;20049;-76
2022/05/22 05:43:29;;;;;;;9.80;5.15;;;12.70;99.90;;;;;;5009864;28;20045;-76
2022/05/22 05:45:55;;;;;;;9.77;5.78;;;12.80;99.90;;;;;;5029794;28;20124;-74
2022/05/22 05:48:21;;;;;;;8.13;5.50;;;13.00;99.90;;;;;;5028149;28;20069;-76
2022/05/22 05:50:47;;;;;;;8.18;5.18;;;13.10;99.90;;;;;;5023987;28;20029;-77
2022/05/22 05:53:13;;;;;;;8.90;5.10;;;13.20;99.90;;;;;;5026291;28;20048;-76
2022/05/22 05:55:38;;;;;;;9.85;5.40;;;13.30;99.90;;;;;;5028161;28;20029;-75
2022/05/22 05:58:04;;;;;;;8.60;5.32;;;13.40;99.90;;;;;;5026217;28;20029;-75
2022/05/22 06:00:30;;;;;;;7.65;5.63;;;13.50;99.90;;;;;;5025152;28;20044;-76
2022/05/22 06:02:56;;;;;;;10.80;5.35;;;13.60;99.90;;;;;;5025197;28;20615;-76
2022/05/22 06:05:23;;;;;;;9.93;5.47;;;13.80;99.90;;;;;;5030763;28;20049;-77
2022/05/22 06:07:50;;;;;;;6.82;5.00;;;14.00;99.90;;;;;;5030203;28;20021;-76
2022/05/22 06:10:17;;;;;;;9.07;5.57;;;14.30;99.90;;;;;;5024901;28;20124;-77
2022/05/22 06:12:43;;;;;;;13.23;6.25;;;14.50;99.90;;;;;;5026207;28;20041;-76
2022/05/22 06:15:09;;;;;;;9.13;5.32;;;14.60;99.90;;;;;;5011549;28;20036;-75
2022/05/22 06:17:43;;;;;;;9.20;5.53;;;14.80;99.90;;;;;;5030356;28;20744;-76
2022/05/22 06:20:11;;;;;;;9.07;5.65;;;15.00;99.90;;;;;;5028850;28;20023;-77
2022/05/22 06:22:36;;;;;;;8.38;5.05;;;15.20;99.90;;;;;;5029634;28;20037;-77
2022/05/22 06:25:06;;;;;;;7.97;5.38;;;15.40;99.90;;;;;;5029550;28;20128;-75
2022/05/22 06:27:31;;;;;;;7.18;5.15;;;15.60;99.90;;;;;;5029478;28;20044;-76
2022/05/22 06:29:57;;;;;;;9.10;5.10;;;15.90;99.90;;;;;;5027632;28;20384;-75
2022/05/22 06:32:24;;;;;;;5.72;4.38;;;16.00;99.90;;;;;;5028914;28;20103;-75
2022/05/22 06:34:49;;;;;;;7.35;4.60;;;16.30;99.90;;;;;;5028784;28;20068;-78
2022/05/22 06:37:20;;;;;;;6.63;4.22;;;16.40;99.90;;;;;;5030056;28;20056;-76
2022/05/22 06:39:49;;;;;;;7.28;3.80;;;16.60;99.90;;;;;;5028995;28;20225;-76
2022/05/22 06:42:24;;;;;;;8.95;4.20;;;16.80;99.90;;;;;;5030349;28;20042;-75
2022/05/22 06:44:59;;;;;;;7.53;4.25;;;17.00;99.90;;;;;;5029818;28;20029;-75
2022/05/22 06:47:26;;;;;;;6.80;4.22;;;17.10;99.90;;;;;;5029832;28;20033;-74
2022/05/22 06:49:53;;;;;;;5.32;3.45;;;17.30;99.90;;;;;;5024898;28;20133;-77
2022/05/22 06:52:19;;;;;;;9.13;3.83;;;17.50;99.90;;;;;;5025419;28;20032;-76
2022/05/22 06:54:45;;;;;;;9.40;3.30;;;17.80;99.90;;;;;;5022412;28;20021;-76
2022/05/22 06:57:15;;;;;;;7.25;3.10;;;17.80;99.90;;;;;;5020042;28;20033;-77
2022/05/22 06:59:42;;;;;;;5.10;3.38;;;17.90;99.90;;;;;;5011829;28;20144;-76
2022/05/22 07:02:07;;;;;;;6.15;2.60;;;17.90;99.90;;;;;;5011830;28;20034;-74
2022/05/22 07:04:33;;;;;;;13.73;2.63;;;18.00;99.90;;;;;;5030559;28;20032;-76
2022/05/22 07:06:59;;;;;;;7.47;2.60;;;18.20;99.90;;;;;;5029593;28;20112;-77
2022/05/22 07:09:25;;;;;;;4.85;2.53;;;18.40;99.90;;;;;;5029500;28;20031;-75
2022/05/22 07:11:54;;;;;;;4.13;2.47;;;18.60;99.90;;;;;;4992178;28;20632;-77
2022/05/22 07:14:20;;;;;;;8.32;2.45;;;18.70;99.90;;;;;;5014241;28;20481;-76
2022/05/22 07:16:46;;;;;;;6.70;2.85;;;18.90;99.90;;;;;;5029224;28;20438;-77
2022/05/22 07:19:12;;;;;;;5.00;2.08;;;19.20;99.90;;;;;;5011053;28;20084;-75
2022/05/22 07:21:38;;;;;;;2.92;1.92;;;19.10;99.90;;;;;;5011885;28;20029;-77
2022/05/22 07:24:05;;;;;;;3.30;2.08;;;19.20;99.90;;;;;;5027573;28;20045;-76
2022/05/22 07:26:31;;;;;;;5.45;2.10;;;19.30;99.90;;;;;;5028893;28;20069;-75
2022/05/22 07:29:01;;;;;;;5.07;2.00;;;19.30;99.90;;;;;;5026168;28;20076;-77
2022/05/22 07:31:28;;;;;;;4.73;2.13;;;19.30;99.90;;;;;;5010394;28;20121;-78
2022/05/22 07:33:54;;;;;;;5.45;1.65;;;19.40;99.90;;;;;;5013369;28;20433;-77
2022/05/22 07:36:21;;;;;;;5.47;1.90;;;19.50;99.90;;;;;;5029880;28;20025;-76
2022/05/22 07:38:47;;;;;;;2.80;1.40;;;19.60;99.90;;;;;;5027997;28;20033;-77
2022/05/22 07:41:14;;;;;;;5.15;2.20;;;19.60;99.90;;;;;;5027605;28;20145;-77
2022/05/22 07:43:41;;;;;;;2.78;1.67;;;19.80;99.90;;;;;;5028745;28;20736;-76
2022/05/22 07:46:07;;;;;;;6.30;2.08;;;19.80;99.90;;;;;;5027296;28;20496;-76
2022/05/22 07:48:33;;;;;;;5.13;2.40;;;19.50;99.90;;;;;;5027685;28;20540;-77
2022/05/22 07:51:01;;;;;;;3.53;1.90;;;19.30;99.90;;;;;;5024051;28;20029;-77
2022/05/22 07:53:28;;;;;;;4.40;2.08;;;19.40;99.90;;;;;;5011790;28;20036;-75
2022/05/22 07:55:54;;;;;;;6.68;2.03;;;19.50;99.90;;;;;;5027850;28;20025;-77
2022/05/22 07:58:24;;;;;;;3.13;1.88;;;19.80;99.90;;;;;;5028782;28;20029;-77
2022/05/22 08:00:51;;;;;;;3.17;1.95;;;20.00;99.90;;;;;;5028503;28;20021;-76
2022/05/22 08:03:17;;;;;;;3.53;1.80;;;20.00;99.90;;;;;;5027479;28;20045;-76
2022/05/22 08:05:43;;;;;;;3.38;1.90;;;20.10;99.90;;;;;;5028868;28;20032;-77
2022/05/22 08:08:09;;;;;;;5.75;1.80;;;20.10;99.90;;;;;;5026140;28;20029;-77
2022/05/22 08:10:36;;;;;;;3.83;1.60;;;20.10;99.90;;;;;;5027884;28;20040;-77
2022/05/22 08:13:04;;;;;;;3.80;1.70;;;20.00;99.90;;;;;;5027612;28;20047;-75
2022/05/22 08:15:32;;;;;;;4.28;2.00;;;20.00;99.90;;;;;;5028104;28;20030;-76
2022/05/22 08:17:59;;;;;;;4.32;1.45;;;20.30;99.90;;;;;;5028031;28;20121;-75
2022/05/22 08:20:26;;;;;;;3.35;1.80;;;20.60;99.40;;;;;;5027349;28;20069;-76
2022/05/22 08:22:57;;;;;;;1.77;1.35;;;20.70;96.40;;;;;;5028730;28;20084;-78
2022/05/22 08:25:25;;;;;;;5.38;1.48;;;20.80;99.90;;;;;;5027823;28;20144;-76
2022/05/22 08:27:52;;;;;;;6.88;1.50;;;20.80;99.90;;;;;;5027863;28;20029;-76
2022/05/22 08:30:20;;;;;;;3.38;1.20;;;20.80;99.70;;;;;;5026183;28;20026;-74
2022/05/22 08:32:47;;;;;;;1.77;1.02;;;20.70;96.50;;;;;;5029255;28;20044;-76
2022/05/22 08:35:16;;;;;;;2.13;1.30;;;20.70;98.90;;;;;;5028027;28;20045;-77
2022/05/22 08:37:43;;;;;;;2.85;1.27;;;20.70;97.10;;;;;;5028228;28;20037;-76
2022/05/22 08:40:10;;;;;;;6.03;1.33;;;20.70;96.00;;;;;;5027316;28;20057;-77
2022/05/22 08:42:43;;;;;;;3.78;1.60;;;20.80;97.10;;;;;;5011288;28;20041;-77
2022/05/22 08:45:24;;;;;;;2.50;1.50;;;20.90;97.40;;;;;;5009607;28;20112;-77
2022/05/22 08:47:53;;;;;;;3.90;1.40;;;20.90;96.40;;;;;;5011656;28;20490;-77
2022/05/22 08:50:19;;;;;;;1.50;1.17;;;21.00;96.60;;;;;;5025661;28;20067;-75
2022/05/22 08:52:59;;;;;;;5.00;2.03;;;21.10;97.30;;;;;;5020414;28;20037;-75
2022/05/22 08:58:56;;;;;;;2.95;1.33;;;21.40;96.60;;;;;;5025791;28;20033;-75
2022/05/22 09:01:15;;;;;;;5.03;1.40;;;21.30;95.20;;;;;;5022882;28;20116;-76
2022/05/22 09:04:09;;;;;;;4.90;1.60;;;21.50;94.50;;;;;;5027849;28;20045;-76
2022/05/22 09:06:50;;;;;;;2.55;1.42;;;21.60;92.40;;;;;;5029158;28;20045;-75
2022/05/22 09:09:16;;;;;;;4.45;1.77;;;21.60;91.60;;;;;;5030693;28;20775;-75
2022/05/22 09:12:00;;;;;;;7.80;1.52;;;21.80;92.10;;;;;;5024841;28;20030;-76
2022/05/22 09:14:41;;;;;;;4.18;1.65;;;22.00;95.60;;;;;;5012022;28;20044;-76
2022/05/22 09:17:17;;;;;;;6.13;1.58;;;21.90;92.50;;;;;;5025374;28;20025;-75
2022/05/22 09:19:50;;;;;;;3.25;1.63;;;21.70;92.70;;;;;;5031262;28;20029;-75
2022/05/22 09:22:50;;;;;;;2.50;1.75;;;21.90;96.50;;;;;;5029499;28;20624;-75
2022/05/22 09:25:31;;;;;;;2.17;1.45;;;22.00;92.60;;;;;;4986655;28;20121;-75
2022/05/22 09:28:19;;;;;;;3.10;1.70;;;21.70;92.10;;;;;;5031127;28;20432;-75
2022/05/22 09:31:07;;;;;;;4.25;1.70;;;21.60;94.10;;;;;;5030215;28;20029;-75
2022/05/22 09:33:36;;;;;;;9.15;1.90;;;21.70;91.40;;;;;;5027549;28;20029;-76
2022/05/22 09:36:19;;;;;;;3.15;1.73;;;22.10;94.60;;;;;;5026353;28;20032;-76
2022/05/22 09:39:07;;;;;;;3.65;1.58;;;22.50;91.00;;;;;;5031379;28;20057;-76
2022/05/22 09:42:01;;;;;;;2.80;1.52;;;22.70;92.60;;;;;;5030021;28;20736;-76
2022/05/22 09:45:00;;;;;;;3.00;1.70;;;23.10;92.20;;;;;;5028140;28;20046;-76
2022/05/22 09:47:49;;;;;;;2.33;1.38;;;23.40;91.70;;;;;;5027713;28;20199;-77
2022/05/22 09:50:44;;;;;;;4.20;1.58;;;23.20;86.20;;;;;;4983405;28;20038;-75
2022/05/22 09:53:25;;;;;;;2.80;1.38;;;22.90;87.30;;;;;;5026568;28;20079;-75
2022/05/22 09:55:51;;;;;;;3.78;1.83;;;22.50;90.70;;;;;;5028988;28;20029;-76
2022/05/22 09:58:48;;;;;;;2.90;1.27;;;22.50;90.80;;;;;;5021813;28;20273;-75
2022/05/22 10:01:24;;;;;;;4.00;1.35;;;22.50;87.80;;;;;;5027829;28;20030;-75
2022/05/22 10:04:23;;;;;;;4.38;1.40;;;22.50;87.80;;;;;;5029737;28;20069;-75
2022/05/22 10:07:15;;;;;;;3.08;1.20;;;22.60;87.70;;;;;;5024812;28;20026;-75
2022/05/22 10:09:46;;;;;;;2.83;1.40;;;22.90;88.20;;;;;;5029097;28;20117;-75
2022/05/22 10:12:49;;;;;;;2.95;1.27;;;23.40;89.10;;;;;;5027660;28;20044;-77
2022/05/22 10:15:36;;;;;;;2.40;1.30;;;23.70;86.10;;;;;;5026601;28;21154;-76
2022/05/22 10:18:17;;;;;;;2.22;1.35;;;23.40;84.00;;;;;;5019270;28;20487;-75
2022/05/22 10:20:56;;;;;;;1.95;1.20;;;23.00;85.40;;;;;;5028101;28;20116;-75
2022/05/22 10:24:00;;;;;;;1.58;1.27;;;22.80;88.50;;;;;;5014963;28;20051;-76
2022/05/22 10:26:54;;;;;;;2.30;1.10;;;22.80;85.00;;;;;;4928413;29;20038;-76
2022/05/22 10:29:23;;;;;;;2.72;1.13;;;22.80;82.90;;;;;;5026453;28;20030;-76
2022/05/22 10:32:05;;;;;;;2.08;1.20;;;23.20;79.70;;;;;;5029941;28;20022;-74
2022/05/22 10:34:52;;;;;;;3.72;1.50;;;23.30;80.40;;;;;;5029500;28;20021;-75
2022/05/22 10:37:22;;;;;;;1.85;1.20;;;23.20;85.30;;;;;;5019035;28;20512;-76
2022/05/22 10:39:48;;;;;;;1.73;1.00;;;23.10;77.10;;;;;;5025978;28;20057;-75
2022/05/22 10:42:47;;;;;;;2.35;1.40;;;23.10;80.80;;;;;;5024744;28;20049;-76
2022/05/22 10:45:32;;;;;;;4.35;1.35;;;23.10;80.90;;;;;;5010413;28;20107;-75
2022/05/22 10:48:06;;;;;;;5.15;1.40;;;23.00;80.00;;;;;;5023366;28;20039;-75
2022/05/22 10:50:32;;;;;;;3.25;1.50;;;23.00;78.40;;;;;;5026969;28;20044;-76
2022/05/22 10:52:57;;;;;;;4.05;1.40;;;23.20;79.80;;;;;;5030533;28;20108;-74
2022/05/22 10:55:45;;;;;;;3.47;1.10;;;23.40;83.10;;;;;;5029630;28;20072;-75
2022/05/22 10:58:38;;;;;;;2.67;1.10;;;23.50;76.30;;;;;;5029968;28;20032;-75
2022/05/22 11:01:15;;;;;;;4.55;1.52;;;23.50;74.80;;;;;;5009732;28;20513;-75
2022/05/22 11:03:40;;;;;;;2.38;1.20;;;23.90;78.00;;;;;;5030656;28;20034;-75
2022/05/22 11:06:21;;;;;;;1.58;1.30;;;23.80;79.30;;;;;;5028401;28;20040;-75
2022/05/22 11:08:51;;;;;;;3.92;1.30;;;23.90;80.10;;;;;;5030633;28;20567;-76
2022/05/22 11:11:20;;;;;;;5.63;1.55;;;23.80;80.50;;;;;;5029776;28;20037;-74
2022/05/22 11:13:46;;;;;;;2.22;1.25;;;23.60;81.30;;;;;;5030414;28;20044;-75
2022/05/22 11:16:15;;;;;;;2.75;1.52;;;23.40;76.30;;;;;;5027731;28;20026;-75
2022/05/22 11:18:41;;;;;;;5.82;1.73;;;23.40;86.20;;;;;;5030420;28;20117;-76
2022/05/22 11:21:31;;;;;;;3.70;1.20;;;23.60;78.40;;;;;;5028658;28;20112;-76
2022/05/22 11:24:12;;;;;;;5.22;1.58;;;24.00;79.10;;;;;;5029960;28;20694;-76
2022/05/22 11:27:06;;;;;;;4.95;1.35;;;24.40;78.30;;;;;;5026594;28;20029;-75
2022/05/22 11:29:44;;;;;;;4.60;1.30;;;24.70;77.00;;;;;;5030216;28;20029;-74
2022/05/22 11:32:18;;;;;;;3.63;1.33;;;24.30;78.10;;;;;;5011514;28;20029;-75
2022/05/22 11:35:05;;;;;;;3.03;1.30;;;24.30;78.70;;;;;;5029116;28;20029;-76
2022/05/22 11:37:46;;;;;;;4.82;1.20;;;24.20;72.60;;;;;;5010050;28;20068;-75
2022/05/22 11:40:25;;;;;;;2.28;1.40;;;24.80;73.50;;;;;;5021305;28;20136;-75
2022/05/22 11:43:11;;;;;;;2.45;1.40;;;25.00;66.70;;;;;;5029555;28;20044;-77
2022/05/22 11:45:43;;;;;;;2.13;1.30;;;25.30;68.40;;;;;;5029884;28;20030;-76
2022/05/22 11:48:22;;;;;;;3.92;1.35;;;25.30;66.40;;;;;;5029049;28;20057;-76
2022/05/22 11:50:51;;;;;;;2.05;1.20;;;25.10;69.90;;;;;;5028847;28;20033;-74
2022/05/22 11:53:22;;;;;;;2.95;1.30;;;25.20;71.90;;;;;;5011018;28;20120;-76
2022/05/22 11:56:08;;;;;;;4.15;1.40;;;25.00;73.70;;;;;;5029750;28;20025;-74
2022/05/22 11:58:48;;;;;;;2.00;1.08;;;25.00;65.60;;;;;;5028811;28;20060;-74
2022/05/22 12:01:27;;;;;;;2.00;1.10;;;25.00;66.30;;;;;;5028859;28;20017;-76
2022/05/22 12:04:12;;;;;;;2.13;1.33;;;25.50;68.70;;;;;;5029270;28;20406;-75
2022/05/22 12:07:18;;;;;;;3.60;1.27;;;26.10;71.90;;;;;;5029326;28;20038;-77
2022/05/22 12:09:56;;;;;;;3.05;1.30;;;26.20;64.70;;;;;;5002521;28;20050;-76
2022/05/22 12:12:42;;;;;;;2.63;1.30;;;26.10;62.60;;;;;;5008980;28;20033;-76
2022/05/22 12:15:08;;;;;;;2.60;1.20;;;26.00;70.20;;;;;;5008976;28;20022;-76
2022/05/22 12:18:15;;;;;;;3.10;1.30;;;25.50;62.90;;;;;;5011936;28;20582;-75
2022/05/22 12:21:22;;;;;;;5.60;1.40;;;25.20;62.50;;;;;;4995856;28;20045;-75
2022/05/22 12:23:56;;;;;;;2.42;1.20;;;25.60;68.80;;;;;;5029201;28;20378;-75
2022/05/22 12:26:25;;;;;;;4.60;1.20;;;25.80;64.80;;;;;;5010446;28;20108;-75
2022/05/22 12:28:59;;;;;;;1.50;1.20;;;25.60;59.70;;;;;;5028294;28;20040;-76
2022/05/22 12:31:44;;;;;;;3.35;1.33;;;25.60;65.10;;;;;;5028484;28;20030;-76
2022/05/22 12:34:14;;;;;;;6.13;1.55;;;25.90;66.40;;;;;;5032173;28;20029;-75
2022/05/22 12:36:47;;;;;;;5.88;1.45;;;25.60;63.80;;;;;;5033247;28;20055;-76
2022/05/22 12:39:15;;;;;;;2.40;1.30;;;25.30;68.00;;;;;;5031008;28;20141;-74
2022/05/22 12:41:53;;;;;;;5.30;1.20;;;25.00;66.50;;;;;;5031903;28;20040;-75
2022/05/22 12:44:19;;;;;;;1.88;1.30;;;24.70;67.70;;;;;;5032313;28;20030;-75
2022/05/22 12:46:46;;;;;;;5.50;1.55;;;24.70;68.80;;;;;;5033161;28;20449;-76
2022/05/22 12:49:30;;;;;;;4.90;1.20;;;24.90;70.30;;;;;;5031444;28;20064;-76
2022/05/22 12:52:03;;;;;;;2.35;1.23;;;25.10;69.90;;;;;;5033115;28;20037;-76
2022/05/22 12:54:32;;;;;;;2.45;1.30;;;24.90;66.30;;;;;;5031310;28;20625;-75
2022/05/22 12:57:09;;;;;;;5.53;1.30;;;24.60;67.90;;;;;;5033008;28;20108;-75
2022/05/22 12:59:35;;;;;;;1.80;1.38;;;24.70;65.50;;;;;;5032862;28;20110;-76
2022/05/22 13:02:02;;;;;;;2.28;1.20;;;24.70;63.30;;;;;;5032827;28;20112;-75
2022/05/22 13:04:34;;;;;;;2.72;1.60;;;24.90;62.80;;;;;;5030973;28;20029;-75
2022/05/22 13:07:11;;;;;;;2.10;1.20;;;25.20;65.30;;;;;;5012755;28;20033;-75
2022/05/22 13:09:44;;;;;;;1.73;1.30;;;25.10;63.30;;;;;;5012839;28;20640;-76
2022/05/22 13:12:13;;;;;;;2.15;1.30;;;25.20;67.00;;;;;;5012381;28;20041;-77
2022/05/22 13:14:43;;;;;;;3.17;1.40;;;25.30;67.60;;;;;;5013558;28;20514;-75
2022/05/22 13:17:11;;;;;;;1.38;0.98;;;25.50;62.00;;;;;;5030154;28;20108;-76